Date,TemperatureHighF,TemperatureAvgF,TemperatureLowF,DewpointHighF,DewpointAvgF,DewpointLowF,HumidityHigh,HumidityAvg,HumidityLow,PressureMaxIn,PressureMinIn,WindSpeedMaxMPH,WindSpeedAvgMPH,GustSpeedMaxMPH,PrecipitationSumIn
2013-10-1,70.9,59.4,49.3,63.7,55.6,46.7,95,87,75,30.03,29.94,0,0,0,0.00
2013-10-2,74.5,63.9,54.5,61.3,53.4,44.1,94,72,37,30.10,29.96,0,0,0,0.00
2013-10-3,77.0,64.8,53.3,68.2,59.4,49.5,91,83,72,30.08,29.93,0,0,0,0.00
2013-10-4,74.9,68.3,63.5,68.4,64.6,61.0,93,88,79,30.05,29.94,0,0,0,0.00
2013-10-5,71.3,67.1,63.5,68.5,64.8,62.0,96,92,89,30.05,29.87,0,0,0,0.27
2013-10-6,68.2,64.0,54.4,66.1,61.8,52.5,96,93,86,29.87,29.65,0,0,0,0.34
2013-10-7,55.8,50.6,44.3,52.8,47.0,41.7,94,88,75,30.12,29.70,0,0,0,0.00
2013-10-8,64.8,52.0,41.0,50.7,44.2,38.5,94,76,55,30.29,30.12,0,0,0,0.00
2013-10-9,66.6,53.8,43.0,54.5,46.0,39.7,93,76,55,30.33,30.22,0,0,0,0.00
2013-10-10,67.3,54.6,43.7,54.5,46.1,40.6,94,75,48,30.24,30.14,0,0,0,0.00
2013-10-11,68.2,54.4,41.2,52.4,44.9,38.0,92,72,44,30.16,30.08,0,0,0,0.00
2013-10-12,72.5,59.7,48.6,62.6,52.8,44.8,94,79,55,30.12,30.04,0,0,0,0.00
2013-10-13,64.6,57.7,47.5,56.7,47.5,40.5,91,71,44,30.35,30.09,0,0,0,0.00
2013-10-14,60.1,51.1,44.1,45.3,42.5,40.0,89,73,52,30.42,30.28,0,0,0,0.00
2013-10-15,61.9,53.3,42.1,58.3,49.7,38.5,94,88,81,30.29,29.83,0,0,0,0.09
2013-10-16,60.1,53.9,50.2,58.6,50.1,46.0,95,87,74,29.92,29.81,0,0,0,0.00
2013-10-17,51.5,49.5,45.2,48.6,46.7,43.3,94,90,86,29.91,29.76,0,0,0,0.16
2013-10-18,60.1,49.6,41.9,48.8,43.3,40.0,94,80,55,29.92,29.84,0,0,0,0.00
2013-10-19,45.7,43.4,40.3,43.5,40.4,37.3,92,89,83,29.91,29.75,0,0,0,0.22
2013-10-20,55.3,46.7,38.3,45.2,41.3,35.9,93,82,63,29.91,29.83,0,0,0,0.02
2013-10-21,53.8,49.1,40.3,48.8,42.5,33.7,88,78,70,29.86,29.80,0,0,0,0.00
2013-10-22,47.7,40.5,32.2,36.0,31.9,27.3,84,71,59,29.91,29.84,0,0,0,0.00
2013-10-23,45.5,38.1,32.2,34.8,31.1,28.0,89,76,55,29.94,29.82,0,0,0,0.00
2013-10-24,45.2,36.9,31.3,35.2,31.0,27.6,89,80,57,30.18,29.92,0,0,0,0.00
2013-10-25,45.0,37.3,31.1,35.7,30.9,27.9,90,78,61,30.31,30.09,0,0,0,0.00
2013-10-26,48.6,42.0,35.8,37.6,32.6,28.4,90,70,58,30.09,29.77,0,0,0,0.11
2013-10-27,49.3,39.5,32.2,38.6,33.7,29.4,92,81,60,30.06,29.97,0,0,0,0.00
2013-10-28,49.9,39.5,31.3,40.6,33.5,27.8,89,79,68,30.40,30.04,0,0,0,0.00
2013-10-29,48.2,42.0,38.0,37.9,33.8,30.8,78,73,63,30.44,30.24,0,0,0,0.00
2013-10-30,59.9,46.4,33.8,48.2,39.5,30.3,91,78,61,30.24,29.96,0,0,0,0.10
2013-10-31,59.4,57.2,51.1,58.2,55.9,47.9,97,95,89,29.97,29.18,0,0,0,1.10